EW4652 Weather Reports


Display with metric or nautical units.
time (UTC)temp
F
wind
direction
speed
MPH
gust
MPH
rain 1hr
in
rain 24hr
in
rain mn
in
humidity
%
barometer
mb
20220518130047 52 94 11.0 16.0 0.00 0.15 0.08 87 1012.1
20220518124548 52 80 10.0 16.0 0.00 0.15 0.08 88 1012.0
20220518123047 52 90 10.0 15.0 0.00 0.15 0.08 89 1011.9
20220518121542 52 100 10.0 15.0 0.00 0.15 0.08 90 1012.2
20220518120038 52 111 13.0 16.0 0.00 0.15 0.08 90 1012.2
20220518114539 52 119 10.0 15.0 0.00 0.15 0.08 92 1012.3
20220518113035 53 105 10.0 15.0 0.00 0.15 0.08 92 1012.1
20220518111549 53 106 11.0 17.0 0.00 0.15 0.08 93 1012.0
20220518110028 53 111 11.0 15.0 0.00 0.15 0.08 93 1011.8
20220518104526 53 92 11.0 15.0 0.00 0.15 0.08 92 1012.1
20220518103025 53 94 11.0 15.0 0.00 0.15 0.08 92 1012.2
20220518101523 53 94 10.0 15.0 0.00 0.15 0.08 92 1012.1
20220518100020 53 93 9.0 13.0 0.00 0.15 0.08 93 1012.4
20220518094518 53 104 10.0 14.0 0.00 0.15 0.08 92 1012.3
20220518093016 53 81 10.0 15.0 0.00 0.15 0.08 92 1012.5
20220518091515 53 87 7.0 12.0 0.00 0.15 0.08 92 1012.6
20220518090014 53 90 6.0 10.0 0.00 0.15 0.08 93 1012.7
20220518084515 53 84 7.0 12.0 0.00 0.15 0.08 93 1012.6
20220518083019 53 107 7.0 12.0 0.00 0.15 0.08 93 1012.5
20220518081518 53 86 7.0 12.0 0.00 0.15 0.08 92 1012.5
20220518080015 53 78 7.0 12.0 0.00 0.15 0.08 92 1012.5
20220518074510 53 76 7.0 13.0 0.00 0.15 0.08 92 1012.1
20220518073007 53 96 9.0 13.0 0.01 0.15 0.08 93 1012.4
20220518071511 53 75 8.0 12.0 0.01 0.15 0.08 93 1012.6
20220518070003 53 75 9.0 16.0 0.06 0.15 0.08 94 1012.9
20220518064601 53 94 9.0 13.0 0.07 0.15 0.08 94 1013.2
20220518063056 53 76 6.0 11.0 0.06 0.14 0.07 94 1014.1
20220518061553 53 71 9.0 14.0 0.06 0.14 0.07 93 1014.4
20220518060104 54 50 9.0 13.0 0.02 0.09 0.02 93 1015.5
20220518054549 54 80 6.0 10.0 0.01 0.08 0.01 92 1014.7
20220518053044 54 98 6.0 12.0 0.02 0.08 0.01 92 1014.9
20220518051600 54 77 7.0 9.0 0.02 0.08 0.01 92 1014.9
20220518050043 54 99 4.0 9.0 0.01 0.07 0.00 91 1015.0
20220518044542 54 59 5.0 11.0 0.02 0.07 0.07 91 1015.1
20220518043040 54 34 8.0 16.0 0.05 0.06 0.06 90 1015.5
20220518041536 54 43 10.0 14.0 0.05 0.06 0.06 91 1015.2
20220518040041 54 42 6.0 10.0 0.05 0.06 0.06 89 1014.4
20220518034539 55 93 7.0 11.0 0.04 0.05 0.05 86 1014.3
20220518033033 56 49 4.0 6.0 0.00 0.01 0.01 82 1015.4
20220518031531 56 95 7.0 14.0 0.00 0.01 0.01 82 1014.5
20220518030032 56 101 8.0 13.0 0.00 0.01 0.01 85 1014.5
20220518024543 55 90 8.0 13.0 0.00 0.01 0.01 86 1014.4
20220518023029 55 92 8.0 13.0 0.00 0.01 0.01 86 1014.2
20220518021530 55 92 9.0 14.0 0.00 0.01 0.01 87 1014.3
20220518020056 55 90 10.0 13.0 0.00 0.01 0.01 87 1014.3
20220518014524 55 106 10.0 14.0 0.00 0.01 0.01 87 1014.5
20220518013030 56 87 9.0 14.0 0.00 0.01 0.01 86 1014.7
20220518011522 56 84 7.0 11.0 0.00 0.01 0.01 86 1014.8
20220518010021 56 76 6.0 11.0 0.00 0.01 0.01 86 1014.6
20220518004520 56 86 6.0 11.0 0.00 0.01 0.01 84 1014.5
20220518003019 56 87 7.0 12.0 0.00 0.01 0.01 84 1014.6
20220518001618 56 83 5.0 11.0 0.00 0.01 0.01 85 1014.7
20220518000013 57 60 5.0 10.0 0.00 0.01 0.01 85 1014.9
20220517234513 57 93 6.0 10.0 0.00 0.01 0.01 85 1014.8
20220517233010 57 98 4.0 12.0 0.00 0.01 0.01 85 1015.0
20220517231511 57 100 5.0 9.0 0.00 0.01 0.01 85 1015.4
20220517230008 57 105 7.0 10.0 0.00 0.01 0.01 84 1015.5
20220517224507 57 105 7.0 10.0 0.00 0.01 0.01 85 1015.4
20220517223009 57 119 7.0 10.0 0.00 0.01 0.01 85 1015.4
20220517221516 57 117 6.0 9.0 0.00 0.01 0.01 85 1015.7
20220517220009 57 118 7.0 11.0 0.00 0.01 0.01 84 1015.7
20220517214511 57 122 8.0 12.0 0.00 0.01 0.01 83 1015.8
20220517213003 56 137 10.0 14.0 0.00 0.01 0.01 85 1015.7
20220517211502 56 146 10.0 14.0 0.00 0.01 0.01 86 1015.7
20220517210100 56 162 9.0 15.0 0.00 0.01 0.01 87 1015.6
20220517204600 56 109 10.0 13.0 0.00 0.01 0.01 87 1015.5
20220517203059 56 134 10.0 13.0 0.00 0.01 0.01 88 1016.0
20220517201609 56 139 10.0 14.0 0.00 0.01 0.01 88 1016.3
20220517200056 55 135 11.0 14.0 0.00 0.01 0.01 88 1016.3
20220517194556 55 138 11.0 14.0 0.01 0.01 0.01 87 1016.7
20220517193055 55 121 11.0 14.0 0.01 0.01 0.01 88 1016.7
20220517191614 55 96 9.0 12.0 0.01 0.01 0.01 88 1017.1
20220517190053 55 111 7.0 10.0 0.01 0.01 0.01 88 1017.4
20220517184553 55 128 5.0 11.0 0.00 0.00 0.00 88 1017.5
20220517183051 56 110 8.0 10.0 0.00 0.00 0.00 86 1017.2
20220517181556 56 121 6.0 10.0 0.00 0.00 0.00 85 1017.7
20220517180101 56 144 7.0 10.0 0.00 0.00 0.00 86 1017.9
20220517174548 56 182 5.0 8.0 0.00 0.00 0.00 85 1018.4
20220517173054 56 157 6.0 8.0 0.00 0.00 0.00 86 1018.4
20220517171547 56 161 5.0 8.0 0.00 0.00 0.00 86 1018.6
20220517170048 56 114 5.0 8.0 0.00 0.00 0.00 83 1018.3